sensor_id;sensor_type;location;lat;lon;timestamp;pressure;altitude;pressure_sealevel;temperature;humidity
56992;BME280;42885;49.754;18.636;2023-05-02T00:02:48;98250.11;;;14.78;100.00
56992;BME280;42885;49.754;18.636;2023-05-02T00:05:37;98252.79;;;14.20;100.00
56992;BME280;42885;49.754;18.636;2023-05-02T00:08:27;98245.62;;;14.33;100.00
56992;BME280;42885;49.754;18.636;2023-05-02T00:11:16;98250.72;;;14.12;100.00
56992;BME280;42885;49.754;18.636;2023-05-02T00:14:05;98248.39;;;14.37;100.00
56992;BME280;42885;49.754;18.636;2023-05-02T00:16:53;98238.43;;;14.29;100.00
56992;BME280;42885;49.754;18.636;2023-05-02T00:19:42;98233.17;;;14.35;100.00
56992;BME280;42885;49.754;18.636;2023-05-02T00:22:31;98230.17;;;14.40;100.00
56992;BME280;42885;49.754;18.636;2023-05-02T00:25:19;98231.88;;;14.47;100.00
56992;BME280;42885;49.754;18.636;2023-05-02T00:28:08;98235.80;;;14.29;100.00
56992;BME280;42885;49.754;18.636;2023-05-02T00:30:57;98238.43;;;14.29;100.00
56992;BME280;42885;49.754;18.636;2023-05-02T00:33:46;98231.95;;;14.22;100.00
56992;BME280;42885;49.754;18.636;2023-05-02T00:36:35;98232.09;;;14.38;100.00
56992;BME280;42885;49.754;18.636;2023-05-02T00:39:25;98227.46;;;14.81;99.38
56992;BME280;42885;49.754;18.636;2023-05-02T00:42:14;98230.26;;;15.35;88.93
56992;BME280;42885;49.754;18.636;2023-05-02T00:45:03;98225.38;;;15.58;83.48
56992;BME280;42885;49.754;18.636;2023-05-02T00:47:53;98223.47;;;15.92;77.48
56992;BME280;42885;49.754;18.636;2023-05-02T00:50:42;98224.39;;;16.18;73.81
56992;BME280;42885;49.754;18.636;2023-05-02T00:53:31;98228.84;;;16.33;71.19
56992;BME280;42885;49.754;18.636;2023-05-02T00:56:20;98223.98;;;16.44;69.49
56992;BME280;42885;49.754;18.636;2023-05-02T00:59:10;98226.69;;;16.64;67.31
56992;BME280;42885;49.754;18.636;2023-05-02T01:02:11;98225.59;;;16.51;66.79
56992;BME280;42885;49.754;18.636;2023-05-02T01:11:38;98220.89;;;16.70;62.50
56992;BME280;42885;49.754;18.636;2023-05-02T01:14:21;98221.55;;;16.78;60.53
56992;BME280;42885;49.754;18.636;2023-05-02T01:17:13;98227.84;;;16.71;60.24
56992;BME280;42885;49.754;18.636;2023-05-02T01:20:04;98218.99;;;16.67;59.71
56992;BME280;42885;49.754;18.636;2023-05-02T01:22:57;98223.45;;;16.66;59.24
56992;BME280;42885;49.754;18.636;2023-05-02T01:28:54;98222.70;;;16.70;58.03
56992;BME280;42885;49.754;18.636;2023-05-02T01:31:45;98226.30;;;17.25;57.71
56992;BME280;42885;49.754;18.636;2023-05-02T01:34:37;98229.72;;;16.65;57.74
56992;BME280;42885;49.754;18.636;2023-05-02T01:37:27;98226.09;;;16.66;56.93
56992;BME280;42885;49.754;18.636;2023-05-02T01:40:19;98228.23;;;16.67;56.23
56992;BME280;42885;49.754;18.636;2023-05-02T01:43:17;98226.50;;;16.61;56.54
56992;BME280;42885;49.754;18.636;2023-05-02T01:46:02;98230.02;;;16.56;55.96
56992;BME280;42885;49.754;18.636;2023-05-02T01:48:53;98226.57;;;16.65;55.73
56992;BME280;42885;49.754;18.636;2023-05-02T01:51:50;98228.11;;;16.68;54.80
56992;BME280;42885;49.754;18.636;2023-05-02T01:54:35;98226.92;;;16.67;54.46
56992;BME280;42885;49.754;18.636;2023-05-02T01:57:24;98226.34;;;16.78;53.10
56992;BME280;42885;49.754;18.636;2023-05-02T02:00:16;98214.89;;;16.84;52.50
56992;BME280;42885;49.754;18.636;2023-05-02T02:03:07;98222.82;;;16.84;51.95
56992;BME280;42885;49.754;18.636;2023-05-02T02:05:57;98213.23;;;16.83;51.24
56992;BME280;42885;49.754;18.636;2023-05-02T02:08:47;98217.01;;;16.90;50.95
56992;BME280;42885;49.754;18.636;2023-05-02T02:14:47;98215.66;;;17.05;48.55
56992;BME280;42885;49.754;18.636;2023-05-02T02:18:01;98218.05;;;17.09;47.62
56992;BME280;42885;49.754;18.636;2023-05-02T02:20:47;98218.46;;;17.14;46.54
56992;BME280;42885;49.754;18.636;2023-05-02T02:23:39;98215.28;;;17.20;45.74
56992;BME280;42885;49.754;18.636;2023-05-02T02:26:30;98220.03;;;17.26;45.82
56992;BME280;42885;49.754;18.636;2023-05-02T02:29:19;98218.42;;;17.19;45.12
56992;BME280;42885;49.754;18.636;2023-05-02T02:32:07;98221.35;;;17.26;44.93
56992;BME280;42885;49.754;18.636;2023-05-02T02:34:57;98220.47;;;17.31;44.31
56992;BME280;42885;49.754;18.636;2023-05-02T02:37:57;98217.45;;;17.30;44.26
56992;BME280;42885;49.754;18.636;2023-05-02T02:40:47;98218.77;;;17.30;43.84
56992;BME280;42885;49.754;18.636;2023-05-02T02:46:55;98216.41;;;17.27;43.48
56992;BME280;42885;49.754;18.636;2023-05-02T02:49:48;98215.78;;;17.29;43.53
56992;BME280;42885;49.754;18.636;2023-05-02T02:52:59;98211.75;;;17.25;43.32
56992;BME280;42885;49.754;18.636;2023-05-02T02:55:59;98221.41;;;17.30;43.01
56992;BME280;42885;49.754;18.636;2023-05-02T02:58:46;98222.00;;;17.44;42.41
56992;BME280;42885;49.754;18.636;2023-05-02T03:01:35;98227.92;;;17.42;42.70
56992;BME280;42885;49.754;18.636;2023-05-02T03:04:27;98224.78;;;17.32;42.43
56992;BME280;42885;49.754;18.636;2023-05-02T03:07:18;98225.47;;;17.34;42.21
56992;BME280;42885;49.754;18.636;2023-05-02T03:10:07;98232.10;;;17.44;41.85
56992;BME280;42885;49.754;18.636;2023-05-02T03:12:56;98228.53;;;17.30;42.42
56992;BME280;42885;49.754;18.636;2023-05-02T03:18:44;98224.56;;;17.30;41.93
56992;BME280;42885;49.754;18.636;2023-05-02T03:21:33;98228.03;;;17.20;42.13
56992;BME280;42885;49.754;18.636;2023-05-02T03:24:24;98231.73;;;17.33;41.79
56992;BME280;42885;49.754;18.636;2023-05-02T03:27:14;98235.89;;;17.26;42.36
56992;BME280;42885;49.754;18.636;2023-05-02T03:30:03;98239.67;;;17.33;41.78
56992;BME280;42885;49.754;18.636;2023-05-02T03:32:52;98237.69;;;17.26;41.84
56992;BME280;42885;49.754;18.636;2023-05-02T03:35:43;98237.50;;;17.23;42.05
56992;BME280;42885;49.754;18.636;2023-05-02T03:38:32;98246.95;;;17.26;41.76
56992;BME280;42885;49.754;18.636;2023-05-02T03:41:22;98242.16;;;17.25;41.99
56992;BME280;42885;49.754;18.636;2023-05-02T03:44:13;98244.27;;;17.31;41.99
56992;BME280;42885;49.754;18.636;2023-05-02T03:47:02;98235.62;;;17.19;41.79
56992;BME280;42885;49.754;18.636;2023-05-02T03:49:53;98243.20;;;17.18;42.00
56992;BME280;42885;49.754;18.636;2023-05-02T03:52:41;98244.59;;;17.23;42.29
56992;BME280;42885;49.754;18.636;2023-05-02T03:55:30;98242.01;;;17.17;43.09
56992;BME280;42885;49.754;18.636;2023-05-02T03:58:19;98250.87;;;16.90;43.96
56992;BME280;42885;49.754;18.636;2023-05-02T04:01:15;98250.30;;;16.87;43.73
56992;BME280;42885;49.754;18.636;2023-05-02T04:04:06;98250.74;;;16.92;43.79
56992;BME280;42885;49.754;18.636;2023-05-02T04:06:57;98247.26;;;16.76;44.40
56992;BME280;42885;49.754;18.636;2023-05-02T04:09:46;98251.55;;;16.83;44.26
56992;BME280;42885;49.754;18.636;2023-05-02T04:12:36;98250.64;;;16.88;44.59
56992;BME280;42885;49.754;18.636;2023-05-02T04:15:25;98253.22;;;16.84;44.88
56992;BME280;42885;49.754;18.636;2023-05-02T04:18:15;98252.19;;;16.90;44.47
56992;BME280;42885;49.754;18.636;2023-05-02T04:21:06;98254.14;;;16.88;45.37
56992;BME280;42885;49.754;18.636;2023-05-02T04:23:55;98254.70;;;16.92;44.57
56992;BME280;42885;49.754;18.636;2023-05-02T04:26:44;98258.84;;;16.85;45.04
56992;BME280;42885;49.754;18.636;2023-05-02T04:29:34;98260.69;;;16.94;44.61
56992;BME280;42885;49.754;18.636;2023-05-02T04:32:24;98264.13;;;16.85;44.75
56992;BME280;42885;49.754;18.636;2023-05-02T04:35:13;98265.28;;;16.92;45.21
56992;BME280;42885;49.754;18.636;2023-05-02T04:38:02;98268.97;;;16.95;44.72
56992;BME280;42885;49.754;18.636;2023-05-02T04:40:51;98267.38;;;17.04;44.70
56992;BME280;42885;49.754;18.636;2023-05-02T04:43:42;98269.13;;;16.93;45.61
56992;BME280;42885;49.754;18.636;2023-05-02T04:46:33;98268.73;;;16.83;45.27
56992;BME280;42885;49.754;18.636;2023-05-02T04:49:22;98271.75;;;17.09;44.42
56992;BME280;42885;49.754;18.636;2023-05-02T04:52:11;98272.06;;;17.16;44.11
56992;BME280;42885;49.754;18.636;2023-05-02T04:55:01;98275.56;;;17.26;43.98
56992;BME280;42885;49.754;18.636;2023-05-02T04:57:50;98273.93;;;17.35;43.96
56992;BME280;42885;49.754;18.636;2023-05-02T05:00:39;98275.03;;;17.42;44.76
56992;BME280;42885;49.754;18.636;2023-05-02T05:03:28;98270.87;;;17.40;44.38
56992;BME280;42885;49.754;18.636;2023-05-02T05:06:19;98278.97;;;17.68;43.87
56992;BME280;42885;49.754;18.636;2023-05-02T05:09:07;98275.71;;;17.80;44.29
56992;BME280;42885;49.754;18.636;2023-05-02T05:11:57;98273.67;;;17.87;44.10
56992;BME280;42885;49.754;18.636;2023-05-02T05:14:46;98278.13;;;17.97;44.12
56992;BME280;42885;49.754;18.636;2023-05-02T05:17:37;98284.27;;;17.97;43.75
56992;BME280;42885;49.754;18.636;2023-05-02T05:20:25;98278.77;;;17.95;44.03
56992;BME280;42885;49.754;18.636;2023-05-02T05:23:16;98283.70;;;17.84;44.37
56992;BME280;42885;49.754;18.636;2023-05-02T05:26:12;98281.45;;;18.05;44.20
56992;BME280;42885;49.754;18.636;2023-05-02T05:29:05;98280.39;;;18.11;44.19
56992;BME280;42885;49.754;18.636;2023-05-02T05:31:55;98285.90;;;18.14;44.29
56992;BME280;42885;49.754;18.636;2023-05-02T05:34:45;98286.18;;;18.54;43.58
56992;BME280;42885;49.754;18.636;2023-05-02T05:37:34;98279.69;;;18.53;43.03
56992;BME280;42885;49.754;18.636;2023-05-02T05:40:25;98288.73;;;18.60;42.99
56992;BME280;42885;49.754;18.636;2023-05-02T05:43:16;98284.32;;;18.89;43.93
56992;BME280;42885;49.754;18.636;2023-05-02T05:46:05;98289.76;;;18.87;42.42
56992;BME280;42885;49.754;18.636;2023-05-02T05:48:56;98292.16;;;18.80;43.29
56992;BME280;42885;49.754;18.636;2023-05-02T05:51:46;98290.29;;;18.77;42.95
56992;BME280;42885;49.754;18.636;2023-05-02T05:54:37;98292.28;;;18.65;43.37
56992;BME280;42885;49.754;18.636;2023-05-02T05:57:25;98288.64;;;18.90;43.80
56992;BME280;42885;49.754;18.636;2023-05-02T06:00:16;98285.10;;;19.09;43.71
56992;BME280;42885;49.754;18.636;2023-05-02T06:03:07;98293.70;;;19.07;43.45
56992;BME280;42885;49.754;18.636;2023-05-02T06:05:56;98290.20;;;19.20;43.55
56992;BME280;42885;49.754;18.636;2023-05-02T06:08:46;98296.59;;;19.14;44.01
56992;BME280;42885;49.754;18.636;2023-05-02T06:11:36;98297.73;;;19.39;43.73
56992;BME280;42885;49.754;18.636;2023-05-02T06:14:25;98302.44;;;19.31;43.57
56992;BME280;42885;49.754;18.636;2023-05-02T06:17:14;98302.84;;;19.54;43.14
56992;BME280;42885;49.754;18.636;2023-05-02T06:20:03;98300.14;;;19.64;42.71
56992;BME280;42885;49.754;18.636;2023-05-02T06:22:52;98301.46;;;19.64;42.62
56992;BME280;42885;49.754;18.636;2023-05-02T06:25:41;98307.47;;;19.85;42.90
56992;BME280;42885;49.754;18.636;2023-05-02T06:28:30;98309.09;;;20.14;42.38
56992;BME280;42885;49.754;18.636;2023-05-02T06:31:20;98309.97;;;20.18;42.94
56992;BME280;42885;49.754;18.636;2023-05-02T06:34:09;98311.44;;;20.17;42.59
56992;BME280;42885;49.754;18.636;2023-05-02T06:36:58;98313.83;;;20.06;42.06
56992;BME280;42885;49.754;18.636;2023-05-02T06:39:47;98316.03;;;20.33;41.91
56992;BME280;42885;49.754;18.636;2023-05-02T06:42:37;98312.41;;;20.60;41.83
56992;BME280;42885;49.754;18.636;2023-05-02T06:45:25;98313.17;;;20.79;41.39
56992;BME280;42885;49.754;18.636;2023-05-02T06:48:14;98312.81;;;20.96;40.69
56992;BME280;42885;49.754;18.636;2023-05-02T06:51:03;98314.77;;;21.25;41.42
56992;BME280;42885;49.754;18.636;2023-05-02T06:53:52;98315.67;;;21.46;41.28
56992;BME280;42885;49.754;18.636;2023-05-02T06:56:41;98308.91;;;21.64;40.85
56992;BME280;42885;49.754;18.636;2023-05-02T06:59:31;98308.53;;;21.47;40.80
56992;BME280;42885;49.754;18.636;2023-05-02T07:02:20;98309.68;;;21.48;40.46
56992;BME280;42885;49.754;18.636;2023-05-02T07:05:09;98303.86;;;21.53;41.23
56992;BME280;42885;49.754;18.636;2023-05-02T07:07:58;98309.11;;;21.71;41.00
56992;BME280;42885;49.754;18.636;2023-05-02T07:10:47;98315.38;;;21.66;40.22
56992;BME280;42885;49.754;18.636;2023-05-02T07:13:36;98316.13;;;21.97;40.34
56992;BME280;42885;49.754;18.636;2023-05-02T07:19:02;98326.47;;;22.04;41.05
56992;BME280;42885;49.754;18.636;2023-05-02T07:21:35;98323.95;;;22.44;41.07
56992;BME280;42885;49.754;18.636;2023-05-02T07:24:06;98325.64;;;22.41;39.74
56992;BME280;42885;49.754;18.636;2023-05-02T07:26:36;98321.47;;;22.30;39.78
56992;BME280;42885;49.754;18.636;2023-05-02T07:29:07;98325.63;;;22.62;41.57
56992;BME280;42885;49.754;18.636;2023-05-02T07:31:38;98323.91;;;22.86;40.87
56992;BME280;42885;49.754;18.636;2023-05-02T07:34:10;98326.95;;;22.45;40.06
56992;BME280;42885;49.754;18.636;2023-05-02T07:36:41;98331.30;;;22.34;39.75
56992;BME280;42885;49.754;18.636;2023-05-02T07:39:12;98336.96;;;22.68;40.04
56992;BME280;42885;49.754;18.636;2023-05-02T07:41:44;98339.97;;;22.48;39.83
56992;BME280;42885;49.754;18.636;2023-05-02T07:44:15;98334.97;;;22.41;38.85
56992;BME280;42885;49.754;18.636;2023-05-02T07:46:46;98342.80;;;22.38;38.70
56992;BME280;42885;49.754;18.636;2023-05-02T07:49:17;98338.48;;;22.17;39.13
56992;BME280;42885;49.754;18.636;2023-05-02T07:51:48;98340.14;;;22.34;40.63
56992;BME280;42885;49.754;18.636;2023-05-02T07:54:20;98337.97;;;22.67;39.62
56992;BME280;42885;49.754;18.636;2023-05-02T07:56:51;98344.93;;;22.85;40.43
56992;BME280;42885;49.754;18.636;2023-05-02T07:59:22;98337.23;;;22.94;40.19
56992;BME280;42885;49.754;18.636;2023-05-02T08:01:53;98338.00;;;23.15;39.12
56992;BME280;42885;49.754;18.636;2023-05-02T08:04:26;98343.58;;;22.97;39.37
56992;BME280;42885;49.754;18.636;2023-05-02T08:06:57;98343.30;;;22.67;40.73
56992;BME280;42885;49.754;18.636;2023-05-02T08:09:30;98351.31;;;22.38;39.61
56992;BME280;42885;49.754;18.636;2023-05-02T08:12:01;98352.97;;;22.47;39.60
56992;BME280;42885;49.754;18.636;2023-05-02T08:14:32;98353.80;;;22.64;38.95
56992;BME280;42885;49.754;18.636;2023-05-02T08:17:02;98350.88;;;23.07;39.92
56992;BME280;42885;49.754;18.636;2023-05-02T08:19:33;98350.43;;;23.44;39.67
56992;BME280;42885;49.754;18.636;2023-05-02T08:22:04;98344.27;;;23.75;39.50
56992;BME280;42885;49.754;18.636;2023-05-02T08:24:35;98358.56;;;23.55;39.13
56992;BME280;42885;49.754;18.636;2023-05-02T08:27:06;98346.45;;;24.26;37.83
56992;BME280;42885;49.754;18.636;2023-05-02T08:29:37;98348.44;;;24.01;37.18
56992;BME280;42885;49.754;18.636;2023-05-02T08:32:08;98356.95;;;24.28;37.68
56992;BME280;42885;49.754;18.636;2023-05-02T08:34:38;98352.77;;;24.29;37.46
56992;BME280;42885;49.754;18.636;2023-05-02T08:37:10;98352.48;;;23.69;37.90
56992;BME280;42885;49.754;18.636;2023-05-02T08:39:41;98351.69;;;24.39;38.40
56992;BME280;42885;49.754;18.636;2023-05-02T08:42:12;98358.62;;;24.48;37.55
56992;BME280;42885;49.754;18.636;2023-05-02T08:44:43;98350.80;;;24.46;36.89
56992;BME280;42885;49.754;18.636;2023-05-02T08:47:15;98354.87;;;24.19;37.41
56992;BME280;42885;49.754;18.636;2023-05-02T08:49:46;98351.41;;;24.10;38.11
56992;BME280;42885;49.754;18.636;2023-05-02T08:52:19;98349.63;;;24.26;37.60
56992;BME280;42885;49.754;18.636;2023-05-02T08:54:51;98351.84;;;24.41;36.51
56992;BME280;42885;49.754;18.636;2023-05-02T08:57:22;98356.61;;;24.31;37.22
56992;BME280;42885;49.754;18.636;2023-05-02T08:59:52;98364.98;;;24.09;36.17
56992;BME280;42885;49.754;18.636;2023-05-02T09:04:59;98358.45;;;24.50;37.11
56992;BME280;42885;49.754;18.636;2023-05-02T09:07:46;98357.52;;;24.61;35.80
56992;BME280;42885;49.754;18.636;2023-05-02T09:10:14;98351.30;;;24.65;36.19
56992;BME280;42885;49.754;18.636;2023-05-02T09:12:45;98356.06;;;26.12;35.91
56992;BME280;42885;49.754;18.636;2023-05-02T09:15:16;98355.11;;;24.32;37.27
56992;BME280;42885;49.754;18.636;2023-05-02T09:17:49;98365.88;;;24.78;38.46
56992;BME280;42885;49.754;18.636;2023-05-02T09:20:19;98367.25;;;25.12;38.01
56992;BME280;42885;49.754;18.636;2023-05-02T09:22:51;98368.72;;;25.29;37.84
56992;BME280;42885;49.754;18.636;2023-05-02T09:25:22;98379.13;;;24.94;38.29
56992;BME280;42885;49.754;18.636;2023-05-02T09:27:55;98378.72;;;24.25;39.19
56992;BME280;42885;49.754;18.636;2023-05-02T09:30:27;98385.02;;;24.32;39.25
56992;BME280;42885;49.754;18.636;2023-05-02T09:32:58;98386.28;;;23.85;39.68
56992;BME280;42885;49.754;18.636;2023-05-02T09:35:29;98382.91;;;23.91;39.82
56992;BME280;42885;49.754;18.636;2023-05-02T09:38:00;98390.20;;;24.33;40.38
56992;BME280;42885;49.754;18.636;2023-05-02T09:40:30;98391.16;;;24.79;39.07
56992;BME280;42885;49.754;18.636;2023-05-02T09:43:15;98392.06;;;24.48;39.17
56992;BME280;42885;49.754;18.636;2023-05-02T09:46:01;98395.80;;;24.43;39.21
56992;BME280;42885;49.754;18.636;2023-05-02T09:48:52;98390.22;;;24.91;38.18
56992;BME280;42885;49.754;18.636;2023-05-02T09:51:24;98394.92;;;25.19;38.30
56992;BME280;42885;49.754;18.636;2023-05-02T09:53:55;98388.70;;;25.08;39.67
56992;BME280;42885;49.754;18.636;2023-05-02T09:56:26;98392.44;;;23.90;39.23
56992;BME280;42885;49.754;18.636;2023-05-02T09:59:14;98397.44;;;24.25;39.92
56992;BME280;42885;49.754;18.636;2023-05-02T10:01:45;98401.69;;;24.77;39.34
56992;BME280;42885;49.754;18.636;2023-05-02T10:04:17;98407.66;;;24.64;39.78
56992;BME280;42885;49.754;18.636;2023-05-02T10:06:51;98408.13;;;24.67;39.34
56992;BME280;42885;49.754;18.636;2023-05-02T10:09:22;98413.69;;;24.85;39.17
56992;BME280;42885;49.754;18.636;2023-05-02T10:11:54;98414.02;;;25.20;39.46
56992;BME280;42885;49.754;18.636;2023-05-02T10:14:26;98417.13;;;24.94;39.58
56992;BME280;42885;49.754;18.636;2023-05-02T10:17:04;98418.98;;;23.60;40.57
56992;BME280;42885;49.754;18.636;2023-05-02T10:19:38;98417.78;;;23.71;40.22
56992;BME280;42885;49.754;18.636;2023-05-02T10:22:11;98423.35;;;23.53;40.75
56992;BME280;42885;49.754;18.636;2023-05-02T10:24:42;98419.15;;;24.26;40.10
56992;BME280;42885;49.754;18.636;2023-05-02T10:27:13;98419.09;;;24.34;39.60
56992;BME280;42885;49.754;18.636;2023-05-02T10:29:44;98420.42;;;24.11;40.51
56992;BME280;42885;49.754;18.636;2023-05-02T10:32:16;98422.89;;;24.40;40.91
56992;BME280;42885;49.754;18.636;2023-05-02T10:34:49;98426.08;;;23.80;40.55
56992;BME280;42885;49.754;18.636;2023-05-02T10:37:22;98434.38;;;23.85;40.89
56992;BME280;42885;49.754;18.636;2023-05-02T10:39:54;98423.93;;;24.03;40.79
56992;BME280;42885;49.754;18.636;2023-05-02T10:42:25;98433.03;;;23.54;42.86
56992;BME280;42885;49.754;18.636;2023-05-02T10:44:56;98433.09;;;23.20;42.74
56992;BME280;42885;49.754;18.636;2023-05-02T10:47:27;98435.33;;;22.88;45.15
56992;BME280;42885;49.754;18.636;2023-05-02T10:50:00;98435.48;;;22.65;46.35
56992;BME280;42885;49.754;18.636;2023-05-02T10:52:36;98437.64;;;22.91;47.12
56992;BME280;42885;49.754;18.636;2023-05-02T10:55:20;98438.83;;;22.76;47.69
56992;BME280;42885;49.754;18.636;2023-05-02T11:00:31;98439.11;;;23.18;47.71
56992;BME280;42885;49.754;18.636;2023-05-02T11:03:03;98437.58;;;23.41;47.31
56992;BME280;42885;49.754;18.636;2023-05-02T11:05:36;98442.77;;;23.30;49.13
56992;BME280;42885;49.754;18.636;2023-05-02T11:10:52;98433.22;;;23.48;45.13
56992;BME280;42885;49.754;18.636;2023-05-02T11:13:49;98437.13;;;23.04;45.41
56992;BME280;42885;49.754;18.636;2023-05-02T11:16:20;98441.98;;;23.04;45.66
56992;BME280;42885;49.754;18.636;2023-05-02T11:18:58;98436.55;;;23.50;44.17
56992;BME280;42885;49.754;18.636;2023-05-02T11:21:31;98430.41;;;23.77;43.58
56992;BME280;42885;49.754;18.636;2023-05-02T11:24:43;98435.89;;;23.48;43.37
56992;BME280;42885;49.754;18.636;2023-05-02T11:27:35;98440.93;;;23.18;45.01
56992;BME280;42885;49.754;18.636;2023-05-02T11:29:53;98431.34;;;24.28;43.70
56992;BME280;42885;49.754;18.636;2023-05-02T11:33:10;98443.66;;;22.97;46.12
56992;BME280;42885;49.754;18.636;2023-05-02T11:34:57;98440.92;;;23.34;44.76
56992;BME280;42885;49.754;18.636;2023-05-02T11:37:28;98446.95;;;23.32;44.45
56992;BME280;42885;49.754;18.636;2023-05-02T11:40:17;98441.55;;;23.45;43.92
56992;BME280;42885;49.754;18.636;2023-05-02T11:42:44;98446.61;;;23.23;43.42
56992;BME280;42885;49.754;18.636;2023-05-02T11:45:15;98448.11;;;23.26;44.18
56992;BME280;42885;49.754;18.636;2023-05-02T11:47:46;98444.50;;;23.67;43.89
56992;BME280;42885;49.754;18.636;2023-05-02T11:50:18;98441.59;;;23.24;44.41
56992;BME280;42885;49.754;18.636;2023-05-02T11:52:49;98452.42;;;23.39;45.35
56992;BME280;42885;49.754;18.636;2023-05-02T11:55:20;98452.67;;;23.65;44.68
56992;BME280;42885;49.754;18.636;2023-05-02T11:57:51;98450.48;;;23.73;45.17
56992;BME280;42885;49.754;18.636;2023-05-02T12:00:26;98446.80;;;23.70;45.45
56992;BME280;42885;49.754;18.636;2023-05-02T12:02:57;98445.99;;;23.69;45.96
56992;BME280;42885;49.754;18.636;2023-05-02T12:05:28;98452.86;;;23.63;45.41
56992;BME280;42885;49.754;18.636;2023-05-02T12:08:00;98449.87;;;23.58;45.47
56992;BME280;42885;49.754;18.636;2023-05-02T12:10:37;98447.85;;;23.64;45.98
56992;BME280;42885;49.754;18.636;2023-05-02T12:13:08;98450.20;;;23.63;46.38
56992;BME280;42885;49.754;18.636;2023-05-02T12:15:39;98453.03;;;23.66;44.72
56992;BME280;42885;49.754;18.636;2023-05-02T12:18:11;98455.03;;;24.04;44.91
56992;BME280;42885;49.754;18.636;2023-05-02T12:20:42;98449.56;;;24.29;44.11
56992;BME280;42885;49.754;18.636;2023-05-02T12:23:14;98454.09;;;23.84;44.86
56992;BME280;42885;49.754;18.636;2023-05-02T12:25:45;98459.92;;;23.44;45.34
56992;BME280;42885;49.754;18.636;2023-05-02T12:28:17;98458.39;;;23.93;44.51
56992;BME280;42885;49.754;18.636;2023-05-02T12:30:49;98461.97;;;23.37;45.38
56992;BME280;42885;49.754;18.636;2023-05-02T12:33:21;98456.45;;;23.35;45.96
56992;BME280;42885;49.754;18.636;2023-05-02T12:35:52;98455.59;;;23.47;46.12
56992;BME280;42885;49.754;18.636;2023-05-02T12:38:23;98460.31;;;23.07;46.29
56992;BME280;42885;49.754;18.636;2023-05-02T12:40:55;98454.28;;;23.34;47.71
56992;BME280;42885;49.754;18.636;2023-05-02T12:43:41;98449.02;;;23.66;45.76
56992;BME280;42885;49.754;18.636;2023-05-02T12:46:10;98438.22;;;24.93;42.97
56992;BME280;42885;49.754;18.636;2023-05-02T12:48:41;98447.02;;;24.82;44.12
56992;BME280;42885;49.754;18.636;2023-05-02T12:51:22;98456.53;;;24.34;45.96
56992;BME280;42885;49.754;18.636;2023-05-02T12:53:52;98463.86;;;24.36;47.61
56992;BME280;42885;49.754;18.636;2023-05-02T12:56:23;98460.95;;;24.50;48.17
56992;BME280;42885;49.754;18.636;2023-05-02T12:59:03;98473.75;;;24.31;50.04
56992;BME280;42885;49.754;18.636;2023-05-02T13:01:34;98465.03;;;24.38;50.43
56992;BME280;42885;49.754;18.636;2023-05-02T13:04:05;98473.62;;;23.93;51.48
56992;BME280;42885;49.754;18.636;2023-05-02T13:06:36;98472.57;;;23.58;52.79
56992;BME280;42885;49.754;18.636;2023-05-02T13:09:07;98476.30;;;23.20;54.39
56992;BME280;42885;49.754;18.636;2023-05-02T13:11:37;98474.98;;;23.16;55.69
56992;BME280;42885;49.754;18.636;2023-05-02T13:14:09;98476.31;;;23.32;55.06
56992;BME280;42885;49.754;18.636;2023-05-02T13:16:40;98481.95;;;23.54;54.33
56992;BME280;42885;49.754;18.636;2023-05-02T13:19:10;98487.83;;;23.12;56.40
56992;BME280;42885;49.754;18.636;2023-05-02T13:21:41;98480.25;;;23.53;55.49
56992;BME280;42885;49.754;18.636;2023-05-02T13:24:12;98485.02;;;23.83;54.57
56992;BME280;42885;49.754;18.636;2023-05-02T13:26:43;98493.05;;;23.83;54.26
56992;BME280;42885;49.754;18.636;2023-05-02T13:29:14;98494.14;;;24.05;53.49
56992;BME280;42885;49.754;18.636;2023-05-02T13:31:45;98487.09;;;24.08;53.43
56992;BME280;42885;49.754;18.636;2023-05-02T13:34:15;98490.70;;;24.19;54.18
56992;BME280;42885;49.754;18.636;2023-05-02T13:36:46;98490.42;;;24.10;53.56
56992;BME280;42885;49.754;18.636;2023-05-02T13:39:17;98502.26;;;23.68;55.10
56992;BME280;42885;49.754;18.636;2023-05-02T13:41:48;98504.03;;;23.92;55.02
56992;BME280;42885;49.754;18.636;2023-05-02T13:44:19;98502.48;;;23.98;54.32
56992;BME280;42885;49.754;18.636;2023-05-02T13:46:50;98506.64;;;23.52;55.63
56992;BME280;42885;49.754;18.636;2023-05-02T13:49:21;98505.81;;;23.47;56.35
56992;BME280;42885;49.754;18.636;2023-05-02T13:51:51;98503.29;;;23.58;55.45
56992;BME280;42885;49.754;18.636;2023-05-02T13:54:22;98503.34;;;23.46;55.75
56992;BME280;42885;49.754;18.636;2023-05-02T13:56:53;98507.86;;;23.41;56.25
56992;BME280;42885;49.754;18.636;2023-05-02T13:59:24;98514.69;;;22.73;58.48
56992;BME280;42885;49.754;18.636;2023-05-02T14:01:55;98525.68;;;22.14;61.92
56992;BME280;42885;49.754;18.636;2023-05-02T14:04:26;98527.86;;;21.76;65.12
56992;BME280;42885;49.754;18.636;2023-05-02T14:06:56;98527.41;;;21.36;67.93
56992;BME280;42885;49.754;18.636;2023-05-02T14:09:27;98536.80;;;21.22;69.39
56992;BME280;42885;49.754;18.636;2023-05-02T14:11:58;98547.16;;;20.85;73.09
56992;BME280;42885;49.754;18.636;2023-05-02T14:14:30;98542.30;;;20.52;75.66
56992;BME280;42885;49.754;18.636;2023-05-02T14:17:01;98539.19;;;20.57;76.83
56992;BME280;42885;49.754;18.636;2023-05-02T14:19:33;98550.19;;;20.44;78.43
56992;BME280;42885;49.754;18.636;2023-05-02T14:22:04;98565.44;;;20.00;84.23
56992;BME280;42885;49.754;18.636;2023-05-02T14:24:36;98584.19;;;19.64;96.25
56992;BME280;42885;49.754;18.636;2023-05-02T14:27:06;98598.23;;;18.47;100.00
56992;BME280;42885;49.754;18.636;2023-05-02T14:29:39;98592.28;;;17.92;100.00
56992;BME280;42885;49.754;18.636;2023-05-02T14:32:10;98603.31;;;18.19;100.00